Spangsville, Pennsylvania
Current Conditions -  °F | °C
As of 9:54 AM on Saturday 20 Dec 2014 (Local Time) from KPTW Reporting Station
Overcast Overcast  
Wind Chill: 26°   Ceiling: 2900
Heat Index: 32°   Visibility: 10mi
Dew Point: 21°   Wind: 6mph
Humidity: 64%   Direction: 360°N
Pressure: 30.31"   Gusts: NA
Location:  40.3481°N, 75.6818°W
Report Text: KPTW 201454Z AUTO 36005KT 10SM OVC029 00/M06 A3031 RMK AO2 SLP264 T00001061 51018
Loading
Personal Weather Stations






























Interactive Weather Map New forecast layout! Learn more

10-Day Weather Forecast

Advertisements
Track Severe Weather on mobile